createdAt,value
2023-02-02T00:02:47.125Z,98458.08
2023-02-02T00:05:52.580Z,98456.24
2023-02-02T00:08:56.510Z,98454.04
2023-02-02T00:11:59.633Z,98459.14
2023-02-02T00:15:01.365Z,98456.50
2023-02-02T00:18:02.938Z,98455.37
2023-02-02T00:21:04.627Z,98448.72
2023-02-02T00:24:08.139Z,98451.50
2023-02-02T00:27:09.955Z,98457.23
2023-02-02T00:30:11.724Z,98464.64
2023-02-02T00:33:13.250Z,98471.39
2023-02-02T00:36:15.100Z,98465.23
2023-02-02T00:39:17.626Z,98468.65
2023-02-02T00:42:19.381Z,98471.25
2023-02-02T00:45:20.908Z,98470.39
2023-02-02T00:48:23.174Z,98470.73
2023-02-02T00:51:24.846Z,98466.89
2023-02-02T00:54:27.130Z,98472.77
2023-02-02T00:57:28.863Z,98480.92
2023-02-02T01:00:30.425Z,98481.98
2023-02-02T01:03:32.361Z,98487.69
2023-02-02T01:06:34.458Z,98483.48
2023-02-02T01:09:36.015Z,98488.95
2023-02-02T01:12:37.724Z,98486.41
2023-02-02T01:15:39.248Z,98494.71
2023-02-02T01:18:41.398Z,98493.84
2023-02-02T01:21:43.780Z,98500.33
2023-02-02T01:24:45.663Z,98503.25
2023-02-02T01:27:47.162Z,98507.33
2023-02-02T01:30:49.100Z,98511.46
2023-02-02T01:33:51.455Z,98513.53
2023-02-02T01:36:53.301Z,98511.36
2023-02-02T01:39:54.948Z,98514.94
2023-02-02T01:42:56.665Z,98514.42
2023-02-02T01:45:59.207Z,98519.30
2023-02-02T01:49:06.266Z,98525.66
2023-02-02T01:52:09.030Z,98526.20
2023-02-02T01:55:13.081Z,98532.70
2023-02-02T01:58:21.502Z,98538.18
2023-02-02T02:01:23.121Z,98540.25
2023-02-02T02:04:25.391Z,98538.09
2023-02-02T02:07:27.098Z,98545.98
2023-02-02T02:10:28.737Z,98545.05
2023-02-02T02:13:31.863Z,98545.80
2023-02-02T02:16:38.549Z,98548.52
2023-02-02T02:19:46.173Z,98551.34
2023-02-02T02:23:30.145Z,98552.84
2023-02-02T02:26:50.690Z,98557.38
2023-02-02T02:30:29.483Z,98561.92
2023-02-02T02:33:42.843Z,98568.37
2023-02-02T02:37:04.592Z,98576.17
2023-02-02T02:40:41.755Z,98576.98
2023-02-02T02:43:51.541Z,98581.15
2023-02-02T02:46:53.462Z,98583.30
2023-02-02T02:49:55.149Z,98585.64
2023-02-02T02:53:04.325Z,98592.42
2023-02-02T02:56:16.952Z,98592.74
2023-02-02T02:59:30.171Z,98598.70
2023-02-02T03:03:05.756Z,98602.10
2023-02-02T03:06:20.999Z,98602.42
2023-02-02T03:09:26.186Z,98606.16
2023-02-02T03:12:27.963Z,98607.64
2023-02-02T03:15:29.793Z,98604.39
2023-02-02T03:18:33.165Z,98605.89
2023-02-02T03:21:35.102Z,98612.48
2023-02-02T03:24:36.783Z,98618.40
2023-02-02T03:27:39.499Z,98618.88
2023-02-02T03:30:41.741Z,98619.42
2023-02-02T03:33:43.452Z,98624.77
2023-02-02T03:36:44.904Z,98630.58
2023-02-02T03:39:46.617Z,98629.94
2023-02-02T03:42:48.205Z,98633.52
2023-02-02T03:45:57.608Z,98637.10
2023-02-02T03:48:59.130Z,98636.59
2023-02-02T03:52:00.658Z,98633.17
2023-02-02T03:55:02.239Z,98640.98
2023-02-02T03:58:04.018Z,98640.77
2023-02-02T04:01:08.116Z,98640.35
2023-02-02T04:04:09.697Z,98639.46
2023-02-02T04:07:11.335Z,98636.19
2023-02-02T04:10:13.036Z,98639.35
2023-02-02T04:13:14.789Z,98638.98
2023-02-02T04:16:16.522Z,98636.02
2023-02-02T04:19:18.392Z,98639.08
2023-02-02T04:22:20.197Z,98647.27
2023-02-02T04:25:21.983Z,98646.45
2023-02-02T04:28:24.056Z,98638.83
2023-02-02T04:31:25.877Z,98647.56
2023-02-02T04:34:27.835Z,98645.57
2023-02-02T04:37:33.554Z,98642.21
2023-02-02T04:40:38.710Z,98645.27
2023-02-02T04:43:40.662Z,98647.54
2023-02-02T04:46:43.795Z,98657.48
2023-02-02T04:49:45.406Z,98657.52
2023-02-02T04:52:47.039Z,98658.35
2023-02-02T04:55:48.759Z,98655.79
2023-02-02T04:58:50.168Z,98655.38
2023-02-02T05:01:51.872Z,98653.44
2023-02-02T05:04:53.410Z,98653.48
2023-02-02T05:07:54.923Z,98662.17
2023-02-02T05:10:56.750Z,98663.80
2023-02-02T05:13:58.501Z,98660.83
2023-02-02T05:17:00.061Z,98658.20
2023-02-02T05:20:01.705Z,98664.31
2023-02-02T05:23:03.311Z,98668.17
2023-02-02T05:26:04.817Z,98669.97
2023-02-02T05:29:06.421Z,98668.46
2023-02-02T05:32:08.365Z,98667.77
2023-02-02T05:35:10.926Z,98664.16
2023-02-02T05:38:12.529Z,98664.40
2023-02-02T05:41:14.172Z,98659.69
2023-02-02T05:44:16.740Z,98657.55
2023-02-02T05:47:18.439Z,98654.31
2023-02-02T05:50:20.104Z,98656.15
2023-02-02T05:53:21.739Z,98655.58
2023-02-02T05:56:23.282Z,98658.41
2023-02-02T05:59:25.298Z,98653.67
2023-02-02T06:02:26.782Z,98655.86
2023-02-02T06:05:28.659Z,98658.63
2023-02-02T06:08:30.213Z,98656.00
2023-02-02T06:11:31.852Z,98655.95
2023-02-02T06:14:33.386Z,98652.21
2023-02-02T06:17:35.034Z,98649.00
2023-02-02T06:20:37.050Z,98653.79
2023-02-02T06:23:38.599Z,98651.60
2023-02-02T06:26:40.489Z,98650.61
2023-02-02T06:29:42.245Z,98642.52
2023-02-02T06:32:43.886Z,98641.11
2023-02-02T06:35:45.517Z,98636.88
2023-02-02T06:38:51.876Z,98632.25
2023-02-02T06:41:53.442Z,98637.17
2023-02-02T06:44:54.976Z,98634.93
2023-02-02T06:48:00.703Z,98636.26
2023-02-02T06:51:02.607Z,98629.28
2023-02-02T06:54:04.385Z,98630.08
2023-02-02T06:57:06.122Z,98630.45
2023-02-02T07:00:08.556Z,98631.30
2023-02-02T07:03:10.105Z,98630.41
2023-02-02T07:06:13.982Z,98635.23
2023-02-02T07:09:15.873Z,98633.05
2023-02-02T07:12:17.568Z,98631.65
2023-02-02T07:15:19.221Z,98631.15
2023-02-02T07:18:20.744Z,98625.55
2023-02-02T07:21:24.571Z,98622.48
2023-02-02T07:24:26.292Z,98627.48
2023-02-02T07:27:28.102Z,98626.61
2023-02-02T07:30:29.859Z,98628.85
2023-02-02T07:33:31.748Z,98634.21
2023-02-02T07:36:33.313Z,98630.72
2023-02-02T07:39:34.918Z,98632.74
2023-02-02T07:42:36.889Z,98636.61
2023-02-02T07:45:38.806Z,98631.09
2023-02-02T07:48:40.827Z,98632.31
2023-02-02T07:51:47.238Z,98630.15
2023-02-02T07:54:49.383Z,98628.56
2023-02-02T07:57:53.992Z,98632.63
2023-02-02T08:00:55.638Z,98630.13
2023-02-02T08:03:58.225Z,98624.10
2023-02-02T08:06:59.915Z,98619.31
2023-02-02T08:10:01.476Z,98622.49
2023-02-02T08:13:03.144Z,98617.75
2023-02-02T08:16:06.213Z,98617.19
2023-02-02T08:19:09.336Z,98618.03
2023-02-02T08:22:11.301Z,98613.96
2023-02-02T08:25:12.841Z,98614.63
2023-02-02T08:28:14.471Z,98607.06
2023-02-02T08:31:19.871Z,98610.04
2023-02-02T08:34:21.535Z,98607.70
2023-02-02T08:37:23.571Z,98601.30
2023-02-02T08:40:25.296Z,98597.96
2023-02-02T08:43:26.824Z,98600.67
2023-02-02T08:46:28.593Z,98605.61
2023-02-02T08:49:30.134Z,98598.20
2023-02-02T08:52:32.188Z,98597.90
2023-02-02T08:55:33.765Z,98602.23
2023-02-02T08:58:35.548Z,98599.34
2023-02-02T09:01:37.136Z,98603.70
2023-02-02T09:04:38.731Z,98599.96
2023-02-02T09:07:40.357Z,98594.33
2023-02-02T09:10:42.290Z,98597.37
2023-02-02T09:13:45.243Z,98605.46
2023-02-02T09:16:46.939Z,98597.73
2023-02-02T09:19:48.624Z,98597.11
2023-02-02T09:22:50.160Z,98598.29
2023-02-02T09:25:51.862Z,98596.55
2023-02-02T09:28:58.822Z,98592.21
2023-02-02T09:32:00.462Z,98599.71
2023-02-02T09:35:02.412Z,98602.80
2023-02-02T09:38:04.164Z,98600.88
2023-02-02T09:41:11.583Z,98600.86
2023-02-02T09:44:19.411Z,98607.19
2023-02-02T09:47:49.838Z,98605.17
2023-02-02T09:51:04.021Z,98600.52
2023-02-02T09:54:15.260Z,98604.55
2023-02-02T09:57:23.613Z,98614.71
2023-02-02T10:00:34.563Z,98616.15
2023-02-02T10:03:37.373Z,98610.01
2023-02-02T10:06:43.951Z,98607.97
2023-02-02T10:10:04.058Z,98612.09
2023-02-02T10:13:10.530Z,98615.46
2023-02-02T10:16:17.328Z,98617.34
2023-02-02T10:19:19.016Z,98621.36
2023-02-02T10:22:24.805Z,98627.95
2023-02-02T10:25:27.872Z,98626.19
2023-02-02T10:28:42.546Z,98625.36
2023-02-02T10:31:50.365Z,98632.02
2023-02-02T10:35:20.354Z,98629.22
2023-02-02T10:38:37.567Z,98638.58
2023-02-02T10:41:49.408Z,98644.33
2023-02-02T10:45:20.202Z,98652.66
2023-02-02T10:48:28.801Z,98653.60
2023-02-02T10:51:30.641Z,98652.52
2023-02-02T10:54:59.506Z,98661.58
2023-02-02T10:58:13.835Z,98663.10
2023-02-02T11:01:15.580Z,98662.56
2023-02-02T11:04:17.221Z,98661.88
2023-02-02T11:07:19.035Z,98663.30
2023-02-02T11:10:20.673Z,98670.92
2023-02-02T11:13:31.896Z,98675.47
2023-02-02T11:16:43.157Z,98676.09
2023-02-02T11:19:45.611Z,98674.95
2023-02-02T11:22:47.161Z,98680.12
2023-02-02T11:25:57.136Z,98683.84
2023-02-02T11:29:00.039Z,98678.09
2023-02-02T11:32:30.999Z,98683.40
2023-02-02T11:35:32.621Z,98693.32
2023-02-02T11:38:34.326Z,98692.43
2023-02-02T11:41:35.858Z,98694.73
2023-02-02T11:44:38.880Z,98696.09
2023-02-02T11:47:40.767Z,98705.93
2023-02-02T11:50:51.684Z,98702.79
2023-02-02T11:54:21.467Z,98705.46
2023-02-02T11:57:24.929Z,98710.98
2023-02-02T12:00:27.807Z,98708.80
2023-02-02T12:03:31.121Z,98708.71
2023-02-02T12:06:32.605Z,98713.92
2023-02-02T12:09:34.645Z,98720.17
2023-02-02T12:13:00.457Z,98717.50
2023-02-02T12:16:21.132Z,98725.05
2023-02-02T12:19:29.184Z,98733.19
2023-02-02T12:23:02.245Z,98735.50
2023-02-02T12:26:16.293Z,98741.20
2023-02-02T12:29:23.607Z,98737.33
2023-02-02T12:32:34.458Z,98742.31
2023-02-02T12:35:58.998Z,98747.45
2023-02-02T12:39:20.453Z,98751.95
2023-02-02T12:42:46.292Z,98758.63
2023-02-02T12:46:13.325Z,98764.50
2023-02-02T12:49:24.244Z,98773.59
2023-02-02T12:52:32.785Z,98780.20
2023-02-02T12:56:05.038Z,98790.19
2023-02-02T12:59:27.047Z,98793.63
2023-02-02T13:03:00.710Z,98794.77
2023-02-02T13:06:17.215Z,98801.27
2023-02-02T13:09:21.824Z,98807.74
2023-02-02T13:12:24.583Z,98814.73
2023-02-02T13:15:48.072Z,98824.14
2023-02-02T13:19:01.366Z,98831.67
2023-02-02T13:22:06.319Z,98829.52
2023-02-02T13:25:17.007Z,98837.35
2023-02-02T13:28:57.132Z,98835.59
2023-02-02T13:32:06.576Z,98844.86
2023-02-02T13:35:36.265Z,98850.21
2023-02-02T13:38:37.832Z,98854.05
2023-02-02T13:41:39.823Z,98858.41
2023-02-02T13:44:47.201Z,98862.25
2023-02-02T13:47:54.912Z,98866.79
2023-02-02T13:51:34.044Z,98873.52
2023-02-02T13:54:55.832Z,98878.00
2023-02-02T13:58:00.435Z,98886.35
2023-02-02T14:01:06.126Z,98887.23
2023-02-02T14:04:20.969Z,98889.66
2023-02-02T14:07:42.337Z,98895.52
2023-02-02T14:10:52.859Z,98896.11
2023-02-02T14:14:00.744Z,98902.63
2023-02-02T14:17:28.064Z,98906.91
2023-02-02T14:20:40.762Z,98910.35
2023-02-02T14:23:52.992Z,98912.21
2023-02-02T14:27:02.617Z,98927.63
2023-02-02T14:30:19.717Z,98928.98
2023-02-02T14:33:21.268Z,98929.66
2023-02-02T14:36:22.883Z,98934.92
2023-02-02T14:39:26.462Z,98950.41
2023-02-02T14:42:50.063Z,98953.20
2023-02-02T14:46:07.117Z,98962.84
2023-02-02T14:49:12.170Z,98967.83
2023-02-02T14:52:23.132Z,98972.45
2023-02-02T14:55:25.249Z,98984.09
2023-02-02T14:58:33.065Z,98987.69
2023-02-02T15:01:35.777Z,98988.94
2023-02-02T15:04:37.670Z,98996.07
2023-02-02T15:07:52.386Z,99000.46
2023-02-02T15:10:58.807Z,99006.14
2023-02-02T15:14:04.297Z,99012.45
2023-02-02T15:17:12.962Z,99020.50
2023-02-02T15:20:21.513Z,99032.23
2023-02-02T15:23:33.093Z,99038.88
2023-02-02T15:26:37.544Z,99041.10
2023-02-02T15:29:45.227Z,99047.17
2023-02-02T15:32:47.928Z,99058.44
2023-02-02T15:35:49.880Z,99069.03
2023-02-02T15:38:53.853Z,99078.42
2023-02-02T15:41:55.755Z,99086.17
2023-02-02T15:44:57.328Z,99093.02
2023-02-02T15:47:59.591Z,99098.00
2023-02-02T15:51:04.821Z,99109.94
2023-02-02T15:54:21.101Z,99115.45
2023-02-02T15:57:27.557Z,99129.52
2023-02-02T16:04:20.208Z,99143.92
2023-02-02T16:07:28.233Z,99151.65
2023-02-02T16:10:29.945Z,99161.27
2023-02-02T16:13:31.367Z,99166.95
2023-02-02T16:16:38.638Z,99166.84
2023-02-02T16:19:42.205Z,99168.09
2023-02-02T16:22:46.798Z,99170.38
2023-02-02T16:25:51.029Z,99176.59
2023-02-02T16:28:52.677Z,99185.73
2023-02-02T16:31:54.760Z,99191.26
2023-02-02T16:34:56.317Z,99197.27
2023-02-02T16:38:35.600Z,99202.58
2023-02-02T16:41:37.256Z,99209.27
2023-02-02T16:44:38.725Z,99214.45
2023-02-02T16:47:40.317Z,99218.45
2023-02-02T16:50:41.876Z,99223.45
2023-02-02T16:53:46.000Z,99226.73
2023-02-02T16:56:52.398Z,99237.17
2023-02-02T16:59:56.820Z,99240.45
2023-02-02T17:03:04.616Z,99245.97
2023-02-02T17:06:06.862Z,99254.36
2023-02-02T17:09:15.898Z,99265.64
2023-02-02T17:12:32.241Z,99273.35
2023-02-02T17:15:36.044Z,99276.98
2023-02-02T17:18:37.656Z,99286.77
2023-02-02T17:21:39.254Z,99287.15
2023-02-02T17:24:42.865Z,99295.16
2023-02-02T17:27:45.465Z,99300.11
2023-02-02T17:30:49.760Z,99303.72
2023-02-02T17:33:51.449Z,99305.10
2023-02-02T17:36:52.876Z,99308.64
2023-02-02T17:39:54.492Z,99309.84
2023-02-02T17:42:55.961Z,99315.59
2023-02-02T17:45:58.022Z,99322.52
2023-02-02T17:48:59.724Z,99329.80
2023-02-02T17:52:01.256Z,99334.11
2023-02-02T17:55:03.044Z,99332.98
2023-02-02T17:58:04.416Z,99333.55
2023-02-02T18:01:06.490Z,99336.99
2023-02-02T18:04:11.510Z,99341.25
2023-02-02T18:07:13.115Z,99346.73
2023-02-02T18:10:15.323Z,99359.93
2023-02-02T18:13:19.126Z,99370.35
2023-02-02T18:16:20.831Z,99379.06
2023-02-02T18:19:22.471Z,99380.60
2023-02-02T18:22:24.201Z,99386.88
2023-02-02T18:25:26.190Z,99393.55
2023-02-02T18:28:28.041Z,99402.77
2023-02-02T18:31:29.637Z,99407.58
2023-02-02T18:34:31.643Z,99410.02
2023-02-02T18:37:33.269Z,99414.98
2023-02-02T18:40:34.911Z,99424.05
2023-02-02T18:43:36.497Z,99427.79
2023-02-02T18:46:38.034Z,99431.18
2023-02-02T18:49:39.535Z,99439.20
2023-02-02T18:52:41.231Z,99443.66
2023-02-02T18:55:42.834Z,99451.36
2023-02-02T18:58:44.313Z,99454.77
2023-02-02T19:01:46.095Z,99456.86
2023-02-02T19:04:47.877Z,99460.62
2023-02-02T19:07:49.664Z,99470.86
2023-02-02T19:10:58.583Z,99480.48
2023-02-02T19:14:00.067Z,99484.43
2023-02-02T19:17:16.874Z,99490.61
2023-02-02T19:20:28.463Z,99490.12
2023-02-02T19:23:30.214Z,99499.16
2023-02-02T19:26:32.590Z,99504.65
2023-02-02T19:29:35.899Z,99507.89
2023-02-02T19:32:37.758Z,99511.48
2023-02-02T19:35:39.288Z,99514.58
2023-02-02T19:38:41.113Z,99523.81
2023-02-02T19:41:42.610Z,99528.64
2023-02-02T19:44:44.475Z,99534.20
2023-02-02T19:47:46.050Z,99531.21
2023-02-02T19:50:47.763Z,99538.44
2023-02-02T19:53:49.357Z,99547.14
2023-02-02T19:56:56.749Z,99562.64
2023-02-02T19:59:59.025Z,99568.92
2023-02-02T20:03:05.526Z,99573.73
2023-02-02T20:06:12.696Z,99574.66
2023-02-02T20:09:16.570Z,99587.30
2023-02-02T20:12:30.657Z,99597.53
2023-02-02T20:15:36.396Z,99603.14
2023-02-02T20:18:49.066Z,99609.96
2023-02-02T20:21:52.590Z,99620.02
2023-02-02T20:24:56.101Z,99622.41
2023-02-02T20:27:58.975Z,99628.36
2023-02-02T20:31:05.220Z,99641.31
2023-02-02T20:34:25.731Z,99659.23
2023-02-02T20:37:29.968Z,99669.70
2023-02-02T20:40:31.482Z,99665.02
2023-02-02T20:43:33.023Z,99669.20
2023-02-02T20:46:53.918Z,99670.27
2023-02-02T20:49:55.508Z,99678.13
2023-02-02T20:52:57.263Z,99679.01
2023-02-02T20:55:58.687Z,99684.96
2023-02-02T20:59:00.659Z,99687.88
2023-02-02T21:02:02.426Z,99693.14
2023-02-02T21:05:09.292Z,99700.98
2023-02-02T21:08:10.823Z,99700.98
2023-02-02T21:11:12.448Z,99701.98
2023-02-02T21:14:14.081Z,99712.03
2023-02-02T21:17:16.267Z,99710.31
2023-02-02T21:20:18.594Z,99712.15
2023-02-02T21:23:20.177Z,99716.05
2023-02-02T21:26:23.529Z,99716.73
2023-02-02T21:29:44.925Z,99720.83
2023-02-02T21:32:46.873Z,99728.14
2023-02-02T21:35:48.462Z,99731.86
2023-02-02T21:38:50.036Z,99735.45
2023-02-02T21:42:07.085Z,99737.00
2023-02-02T21:45:37.433Z,99754.38
2023-02-02T21:48:39.111Z,99755.06
2023-02-02T21:51:40.763Z,99754.55
2023-02-02T21:54:42.994Z,99757.61
2023-02-02T21:57:44.786Z,99765.45
2023-02-02T22:00:46.818Z,99769.52
2023-02-02T22:03:49.223Z,99773.45
2023-02-02T22:07:08.453Z,99777.20
2023-02-02T22:10:37.404Z,99773.95
2023-02-02T22:13:39.084Z,99780.42
2023-02-02T22:16:46.702Z,99782.45
2023-02-02T22:19:55.833Z,99786.67
2023-02-02T22:22:57.374Z,99790.42
2023-02-02T22:25:59.126Z,99788.72
2023-02-02T22:29:02.324Z,99791.28
2023-02-02T22:32:03.882Z,99796.72
2023-02-02T22:35:05.665Z,99800.48
2023-02-02T22:38:07.227Z,99809.67
2023-02-02T22:41:08.924Z,99813.95
2023-02-02T22:44:10.416Z,99819.39
2023-02-02T22:47:11.980Z,99828.23
2023-02-02T22:50:14.820Z,99819.71
2023-02-02T22:53:16.341Z,99811.21
2023-02-02T22:56:17.830Z,99805.77
2023-02-02T22:59:19.475Z,99807.98
2023-02-02T23:02:20.985Z,99816.66
2023-02-02T23:05:24.349Z,99825.19
2023-02-02T23:08:26.059Z,99834.19
2023-02-02T23:11:27.513Z,99835.72
2023-02-02T23:14:29.137Z,99850.20
2023-02-02T23:17:30.656Z,99852.58
2023-02-02T23:20:32.276Z,99855.64
2023-02-02T23:23:33.848Z,99863.48
2023-02-02T23:26:35.434Z,99866.37
2023-02-02T23:29:36.963Z,99869.44
2023-02-02T23:32:38.503Z,99871.98
2023-02-02T23:35:40.004Z,99875.40
2023-02-02T23:38:41.487Z,99877.09
2023-02-02T23:41:43.043Z,99886.80
2023-02-02T23:44:44.546Z,99889.18
2023-02-02T23:47:46.214Z,99889.52
2023-02-02T23:50:47.897Z,99892.59
2023-02-02T23:53:49.622Z,99901.27
2023-02-02T23:56:51.054Z,99899.91
2023-02-02T23:59:53.051Z,99901.79
